< Cyclone 197911 1980 Season Cyclone 198003 >
Cyclone 198002 (VIOLA)
General InformationTrack Information on Google MapsDetailed Wind Information || ResourceGoogle EarthGE AnimationAtom FeedGeoJSON
Detalied Best Track (Time Zone = UTC)
Year Month Day Hour Lat. Long. Pressure (hPa) Wind (kt) Class Image Chart
1979 12 9 00 -7.9 93.0 1006 20 2 -- --
1979 12 9 06 -8.1 92.9 1005 20 2 -- --
1979 12 9 12 -8.3 92.9 1005 20 2 -- --
1979 12 9 18 -8.5 92.8 1004 25 2 -- --
1979 12 10 00 -8.7 92.8 1004 25 2 -- --
1979 12 10 06 -8.9 92.7 1003 25 2 -- --
1979 12 10 12 -9.1 92.6 1001 25 2 -- --
1979 12 10 18 -9.3 92.5 1000 25 2 -- --
1979 12 11 00 -9.5 92.4 998 30 2 -- --
1979 12 11 06 -9.8 92.2 996 30 2 -- --
1979 12 11 12 -10.1 91.8 994 40 3 -- --
1979 12 11 18 -10.4 91.4 991 45 3 -- --
1979 12 12 00 -10.6 90.9 988 50 4 -- --
1979 12 12 06 -10.6 90.3 987 50 4 -- --
1979 12 12 12 -10.5 89.8 985 50 4 -- --
1979 12 12 18 -10.2 89.2 984 55 4 -- --
1979 12 13 00 -10.1 88.6 982 55 4 -- --
1979 12 13 06 -9.9 88.3 980 60 4 -- --
1979 12 13 12 -9.7 87.9 978 60 4 -- --
1979 12 13 18 -9.6 87.7 976 65 5 -- --
1979 12 14 00 -9.4 87.3 975 65 5 -- --
1979 12 14 06 -9.3 87.0 973 70 5 -- --
1979 12 14 12 -9.1 86.8 970 70 5 -- --
1979 12 14 18 -9.1 86.7 968 75 5 -- --
1979 12 15 00 -9.0 86.5 965 80 5 -- --
1979 12 15 06 -9.0 86.2 963 80 5 -- --
1979 12 15 12 -9.0 85.9 960 85 5 -- --
1979 12 15 18 -9.1 85.7 958 90 5 -- --
1979 12 16 00 -9.3 85.4 955 90 5 -- --
1979 12 16 06 -9.5 85.0 948 95 5 -- --
1979 12 16 12 -9.9 84.6 940 100 5 -- --
1979 12 16 18 -10.2 84.1 930 110 5 -- --
1979 12 17 00 -10.5 83.5 931 110 5 -- --
1979 12 17 06 -10.8 82.8 932 110 5 -- --
1979 12 17 12 -11.0 82.0 933 110 5 -- --
1979 12 17 18 -11.2 81.3 935 105 5 -- --
1979 12 18 00 -11.5 80.4 936 105 5 -- --
1979 12 18 06 -11.7 79.5 938 105 5 -- --
1979 12 18 12 -11.9 78.4 939 105 5 -- --
1979 12 18 18 -12.0 77.5 941 100 5 -- --
1979 12 19 00 -12.1 76.4 942 100 5 -- --
< Cyclone 197911 1980 Season Cyclone 198003 >

Help